Time;durP1;ratioP1;P1;durP2;ratioP2;P2;SDS_P1;SDS_P2;PMS_P1;PMS_P2;Temp;Humidity;BMP_temperature;BMP_pressure;BME280_temperature;BME280_humidity;BME280_pressure;Samples;Min_cycle;Max_cycle;Signal;HPM_P1;HPM_P2
2021/05/16 00:02:14;;;;;;;0.20;0.10;;;9.20;99.90;;;;;;4945879;28;20120;-73
2021/05/16 00:04:40;;;;;;;0.30;0.10;;;9.10;99.90;;;;;;4952597;28;20102;-73
2021/05/16 00:07:06;;;;;;;0.17;0.10;;;9.20;99.90;;;;;;4948927;28;20513;-73
2021/05/16 00:09:32;;;;;;;0.17;0.10;;;9.10;99.90;;;;;;4950175;28;20087;-73
2021/05/16 00:11:58;;;;;;;2.10;0.10;;;9.10;99.90;;;;;;4965207;28;20097;-74
2021/05/16 00:14:24;;;;;;;0.00;0.00;;;9.00;99.90;;;;;;4961130;28;20087;-73
2021/05/16 00:16:50;;;;;;;0.40;0.10;;;9.00;99.90;;;;;;4950380;28;20080;-73
2021/05/16 00:19:15;;;;;;;0.75;0.10;;;8.80;99.90;;;;;;4950279;28;20086;-74
2021/05/16 00:21:41;;;;;;;1.38;0.13;;;9.10;99.90;;;;;;4948319;28;20107;-75
2021/05/16 00:24:07;;;;;;;0.43;0.10;;;9.00;99.90;;;;;;4951338;28;20087;-75
2021/05/16 00:26:33;;;;;;;0.30;0.10;;;8.80;99.90;;;;;;4935096;29;20087;-74
2021/05/16 00:28:59;;;;;;;0.20;0.10;;;8.80;99.90;;;;;;4961221;28;20158;-75
2021/05/16 00:31:25;;;;;;;0.28;0.10;;;8.80;99.90;;;;;;4968280;28;20161;-76
2021/05/16 00:33:50;;;;;;;1.13;0.10;;;8.70;99.90;;;;;;4951454;28;20484;-75
2021/05/16 00:36:16;;;;;;;1.50;0.20;;;8.80;99.90;;;;;;4949689;28;20242;-75
2021/05/16 00:38:42;;;;;;;0.32;0.10;;;8.80;99.90;;;;;;4954210;28;20106;-75
2021/05/16 00:41:07;;;;;;;1.10;0.10;;;8.70;99.90;;;;;;4950683;28;20124;-75
2021/05/16 00:43:33;;;;;;;0.00;0.00;;;8.70;99.90;;;;;;4950440;28;20174;-75
2021/05/16 00:45:58;;;;;;;0.35;0.08;;;8.60;99.90;;;;;;4943887;28;20153;-73
2021/05/16 00:48:24;;;;;;;0.25;0.05;;;8.60;99.90;;;;;;4954015;28;20099;-75
2021/05/16 00:50:50;;;;;;;1.15;0.10;;;8.70;99.90;;;;;;4951180;28;20115;-75
2021/05/16 00:53:23;;;;;;;0.13;0.05;;;8.50;99.90;;;;;;4948229;28;20978;-75
2021/05/16 00:55:50;;;;;;;0.20;0.20;;;8.50;99.90;;;;;;4949007;28;20505;-75
2021/05/16 00:58:16;;;;;;;0.10;0.10;;;8.50;99.90;;;;;;4933945;28;20166;-74
2021/05/16 01:00:42;;;;;;;0.20;0.20;;;8.50;99.90;;;;;;4946862;28;20198;-75
2021/05/16 01:03:08;;;;;;;0.20;0.10;;;8.70;99.90;;;;;;4949222;28;20090;-75
2021/05/16 01:05:35;;;;;;;0.20;0.10;;;8.70;99.90;;;;;;4947148;28;20544;-73
2021/05/16 01:08:03;;;;;;;0.28;0.20;;;8.60;99.90;;;;;;4948985;28;20086;-73
2021/05/16 01:10:32;;;;;;;0.10;0.00;;;8.60;99.90;;;;;;4949286;28;20097;-74
2021/05/16 01:12:58;;;;;;;0.22;0.10;;;8.50;99.90;;;;;;4948111;28;20080;-73
2021/05/16 01:15:26;;;;;;;0.40;0.20;;;8.40;99.90;;;;;;4958128;28;20080;-73
2021/05/16 01:17:53;;;;;;;3.03;0.15;;;8.40;99.90;;;;;;4948857;28;20150;-73
2021/05/16 01:20:28;;;;;;;0.13;0.00;;;8.50;99.90;;;;;;4948341;28;20448;-73
2021/05/16 01:22:56;;;;;;;0.43;0.20;;;8.60;99.90;;;;;;4949192;29;20079;-73
2021/05/16 01:25:23;;;;;;;0.10;0.10;;;8.60;99.90;;;;;;4945668;28;20178;-74
2021/05/16 01:27:49;;;;;;;0.52;0.08;;;8.50;99.90;;;;;;4957589;28;20080;-73
2021/05/16 01:30:15;;;;;;;0.15;0.08;;;8.60;99.90;;;;;;4949615;28;20076;-74
2021/05/16 01:32:41;;;;;;;0.30;0.10;;;8.70;99.90;;;;;;4957543;28;20212;-73
2021/05/16 01:35:08;;;;;;;0.50;0.00;;;8.60;99.90;;;;;;4948302;28;20076;-73
2021/05/16 01:37:34;;;;;;;0.20;0.10;;;8.70;99.90;;;;;;4940148;29;20079;-73
2021/05/16 01:40:00;;;;;;;0.10;0.08;;;8.50;99.90;;;;;;4953865;28;20162;-74
2021/05/16 01:42:26;;;;;;;1.20;0.10;;;8.40;99.90;;;;;;4951482;28;20186;-73
2021/05/16 01:45:02;;;;;;;0.32;0.13;;;8.30;99.90;;;;;;4947896;28;20648;-73
2021/05/16 01:47:28;;;;;;;0.80;0.55;;;8.20;99.90;;;;;;4937911;28;20086;-73
2021/05/16 01:49:57;;;;;;;0.20;0.20;;;8.20;99.90;;;;;;4948763;28;20084;-74
2021/05/16 01:52:30;;;;;;;0.20;0.05;;;8.40;99.90;;;;;;4952334;28;20091;-73
2021/05/16 01:54:55;;;;;;;0.10;0.10;;;8.40;99.90;;;;;;4956126;28;20080;-73
2021/05/16 01:57:21;;;;;;;0.20;0.10;;;8.10;99.90;;;;;;4951940;28;20079;-73
2021/05/16 01:59:47;;;;;;;0.20;0.10;;;8.20;99.90;;;;;;4933576;28;20084;-74
2021/05/16 02:02:13;;;;;;;0.10;0.05;;;8.30;99.90;;;;;;4950006;28;20154;-73
2021/05/16 02:04:38;;;;;;;0.35;0.20;;;8.30;99.90;;;;;;4954262;28;20103;-73
2021/05/16 02:07:04;;;;;;;1.88;0.50;;;8.40;99.90;;;;;;4951719;28;20088;-73
2021/05/16 02:09:31;;;;;;;0.10;0.10;;;8.30;99.90;;;;;;4951548;28;20084;-74
2021/05/16 02:11:56;;;;;;;0.10;0.10;;;8.40;99.90;;;;;;4955085;28;20110;-74
2021/05/16 02:14:32;;;;;;;0.10;0.00;;;8.40;99.90;;;;;;4953313;28;20571;-73
2021/05/16 02:17:00;;;;;;;0.47;0.10;;;8.40;99.90;;;;;;4955073;28;20074;-73
2021/05/16 02:19:26;;;;;;;0.30;0.10;;;8.50;99.90;;;;;;4934162;29;20080;-73
2021/05/16 02:21:52;;;;;;;0.20;0.10;;;8.40;99.90;;;;;;4960920;28;20178;-73
2021/05/16 02:24:18;;;;;;;0.10;0.10;;;8.30;99.90;;;;;;4959892;28;20102;-73
2021/05/16 02:26:44;;;;;;;2.92;0.10;;;8.20;99.90;;;;;;4963538;28;20095;-73
2021/05/16 02:29:10;;;;;;;1.83;0.13;;;8.10;99.90;;;;;;4951705;28;20159;-73
2021/05/16 02:31:37;;;;;;;1.98;0.20;;;8.10;99.90;;;;;;4960001;28;20091;-73
2021/05/16 02:34:03;;;;;;;1.17;0.20;;;8.10;99.90;;;;;;4973233;28;20122;-73
2021/05/16 02:36:29;;;;;;;2.70;0.10;;;8.10;99.90;;;;;;4966231;28;20092;-73
2021/05/16 02:38:55;;;;;;;0.20;0.10;;;7.90;99.90;;;;;;4952402;28;20170;-74
2021/05/16 02:41:21;;;;;;;1.08;0.10;;;7.80;99.90;;;;;;4953293;28;20098;-73
2021/05/16 02:43:47;;;;;;;0.20;0.10;;;7.90;99.90;;;;;;4951889;28;20451;-74
2021/05/16 02:46:13;;;;;;;0.10;0.10;;;7.90;99.90;;;;;;4954635;28;20124;-74
2021/05/16 02:48:39;;;;;;;0.13;0.10;;;7.90;99.90;;;;;;4952570;28;20075;-73
2021/05/16 02:51:06;;;;;;;0.38;0.10;;;7.90;99.90;;;;;;4955620;28;20560;-74
2021/05/16 02:53:32;;;;;;;1.25;0.15;;;8.00;99.90;;;;;;4952395;28;20095;-73
2021/05/16 02:55:57;;;;;;;0.22;0.10;;;7.90;99.90;;;;;;4951740;28;20082;-74
2021/05/16 02:58:23;;;;;;;0.30;0.08;;;7.80;99.90;;;;;;4944685;28;20080;-75
2021/05/16 03:00:49;;;;;;;0.15;0.08;;;7.80;99.90;;;;;;4954074;28;20092;-74
2021/05/16 03:03:14;;;;;;;0.47;0.17;;;7.80;99.90;;;;;;4951364;28;20150;-75
2021/05/16 03:05:40;;;;;;;1.08;0.20;;;7.80;99.90;;;;;;4952084;28;20468;-75
2021/05/16 03:08:06;;;;;;;0.88;0.35;;;7.90;99.90;;;;;;4951176;28;20131;-74
2021/05/16 03:10:32;;;;;;;0.75;0.20;;;7.90;99.90;;;;;;4939601;28;20103;-76
2021/05/16 03:12:57;;;;;;;1.67;0.30;;;7.90;99.90;;;;;;4958150;28;20067;-76
2021/05/16 03:15:23;;;;;;;0.60;0.10;;;7.80;99.90;;;;;;4959965;28;20094;-74
2021/05/16 03:17:48;;;;;;;0.28;0.17;;;7.80;99.90;;;;;;4953703;28;20084;-75
2021/05/16 03:20:15;;;;;;;2.20;0.30;;;7.80;99.90;;;;;;4950974;28;20536;-74
2021/05/16 03:22:40;;;;;;;0.40;0.20;;;7.70;99.90;;;;;;4951809;28;20414;-75
2021/05/16 03:25:08;;;;;;;1.55;0.20;;;7.70;99.90;;;;;;4957380;28;20556;-75
2021/05/16 03:27:34;;;;;;;1.33;0.17;;;7.70;99.90;;;;;;4961102;28;20202;-75
2021/05/16 03:30:00;;;;;;;0.52;0.30;;;7.60;99.90;;;;;;4955992;28;20154;-73
2021/05/16 03:32:25;;;;;;;0.45;0.32;;;7.60;99.90;;;;;;4955574;28;20461;-75
2021/05/16 03:34:51;;;;;;;0.20;0.17;;;7.60;99.90;;;;;;4952402;28;20083;-74
2021/05/16 03:37:18;;;;;;;4.10;0.30;;;7.70;99.90;;;;;;4952215;28;20075;-75
2021/05/16 03:39:43;;;;;;;2.10;0.10;;;7.80;99.90;;;;;;4955594;28;20103;-75
2021/05/16 03:42:09;;;;;;;0.82;0.10;;;7.90;99.90;;;;;;4957163;28;20468;-75
2021/05/16 03:44:34;;;;;;;0.50;0.20;;;7.80;99.90;;;;;;4950589;28;20138;-75
2021/05/16 03:47:00;;;;;;;1.10;0.30;;;7.80;99.90;;;;;;4949805;28;20080;-74
2021/05/16 03:49:26;;;;;;;0.57;0.30;;;7.80;99.90;;;;;;4950643;28;20079;-72
2021/05/16 03:51:52;;;;;;;0.28;0.13;;;7.80;99.90;;;;;;4961139;28;20174;-74
2021/05/16 03:54:17;;;;;;;0.82;0.20;;;7.70;99.90;;;;;;4942207;29;20072;-75
2021/05/16 03:56:43;;;;;;;0.55;0.22;;;7.70;99.90;;;;;;4950108;28;20078;-75
2021/05/16 03:59:09;;;;;;;1.38;0.20;;;7.60;99.90;;;;;;4979612;28;20669;-74
2021/05/16 04:01:35;;;;;;;1.10;0.25;;;7.70;99.90;;;;;;4959174;28;20126;-73
2021/05/16 04:04:00;;;;;;;1.30;0.10;;;7.80;99.90;;;;;;4950173;28;20917;-74
2021/05/16 04:06:26;;;;;;;0.30;0.10;;;8.00;99.90;;;;;;4949791;28;20131;-74
2021/05/16 04:08:51;;;;;;;0.57;0.20;;;8.10;99.90;;;;;;4958961;28;20067;-75
2021/05/16 04:11:17;;;;;;;0.65;0.10;;;8.00;99.90;;;;;;4957703;28;20121;-74
2021/05/16 04:13:42;;;;;;;1.95;0.20;;;8.20;99.90;;;;;;4953315;28;20091;-74
2021/05/16 04:16:08;;;;;;;0.20;0.10;;;8.30;99.90;;;;;;4954409;28;20094;-74
2021/05/16 04:18:34;;;;;;;1.63;0.20;;;8.30;99.90;;;;;;4950484;28;20327;-75
2021/05/16 04:21:03;;;;;;;0.22;0.10;;;8.40;99.90;;;;;;4950738;28;20170;-74
2021/05/16 04:23:29;;;;;;;0.65;0.30;;;8.40;99.90;;;;;;4950434;28;20095;-73
2021/05/16 04:25:54;;;;;;;0.50;0.22;;;8.40;99.90;;;;;;4952638;28;20142;-71
2021/05/16 04:28:20;;;;;;;0.70;0.20;;;8.40;99.90;;;;;;4971336;28;20071;-75
2021/05/16 04:30:45;;;;;;;0.30;0.20;;;8.50;99.90;;;;;;4952774;28;20515;-71
2021/05/16 04:33:11;;;;;;;0.70;0.30;;;8.60;99.90;;;;;;4960468;28;20154;-76
2021/05/16 04:35:36;;;;;;;1.15;0.30;;;8.50;99.90;;;;;;4963336;28;20158;-74
2021/05/16 04:38:02;;;;;;;1.02;0.10;;;8.50;99.90;;;;;;4970419;28;20083;-72
2021/05/16 04:40:28;;;;;;;1.02;0.20;;;8.60;99.90;;;;;;4962601;28;20143;-72
2021/05/16 04:42:55;;;;;;;0.50;0.10;;;8.60;99.90;;;;;;4965531;28;20105;-72
2021/05/16 04:45:21;;;;;;;1.42;0.38;;;8.50;99.90;;;;;;4953827;28;20091;-72
2021/05/16 04:47:47;;;;;;;1.63;0.40;;;8.40;99.90;;;;;;4962706;28;20084;-73
2021/05/16 04:50:15;;;;;;;1.33;0.25;;;8.50;99.90;;;;;;4961588;28;20748;-71
2021/05/16 04:52:40;;;;;;;2.05;0.50;;;8.60;99.90;;;;;;4971154;28;20163;-72
2021/05/16 04:55:06;;;;;;;2.35;0.60;;;8.70;99.90;;;;;;4959483;28;20163;-74
2021/05/16 04:57:32;;;;;;;0.50;0.30;;;8.80;99.90;;;;;;4949567;29;20122;-72
2021/05/16 04:59:58;;;;;;;2.75;0.70;;;8.90;99.90;;;;;;4952103;29;20519;-73
2021/05/16 05:02:24;;;;;;;1.10;0.30;;;9.00;99.90;;;;;;4965619;28;20508;-75
2021/05/16 05:04:50;;;;;;;1.58;0.47;;;9.00;99.90;;;;;;4969728;28;20154;-72
2021/05/16 05:07:16;;;;;;;2.03;0.30;;;9.10;99.90;;;;;;4970548;28;20154;-73
2021/05/16 05:09:42;;;;;;;2.08;0.60;;;9.10;99.90;;;;;;4969787;28;20146;-76
2021/05/16 05:12:08;;;;;;;1.33;0.43;;;9.20;99.90;;;;;;4957803;28;20111;-75
2021/05/16 05:14:33;;;;;;;1.55;0.40;;;9.20;99.90;;;;;;4956533;28;20576;-72
2021/05/16 05:16:59;;;;;;;1.23;0.30;;;9.20;99.90;;;;;;4954654;28;20447;-72
2021/05/16 05:19:25;;;;;;;0.80;0.20;;;9.20;99.90;;;;;;4961764;28;20194;-73
2021/05/16 05:21:51;;;;;;;5.68;0.40;;;9.30;99.90;;;;;;4970461;28;20555;-72
2021/05/16 05:24:16;;;;;;;1.33;0.25;;;9.20;99.90;;;;;;4953149;28;20090;-73
2021/05/16 05:26:42;;;;;;;2.40;0.30;;;9.20;99.90;;;;;;4969943;28;20499;-73
2021/05/16 05:29:07;;;;;;;1.73;0.43;;;9.30;99.90;;;;;;4956224;28;20524;-73
2021/05/16 05:31:33;;;;;;;2.42;0.60;;;9.30;99.90;;;;;;4959565;28;20107;-76
2021/05/16 05:33:59;;;;;;;2.95;1.15;;;9.40;99.90;;;;;;4954441;28;20114;-72
2021/05/16 05:36:24;;;;;;;3.13;0.47;;;9.30;99.90;;;;;;4963616;28;20080;-76
2021/05/16 05:38:50;;;;;;;1.92;0.50;;;9.40;99.90;;;;;;4971203;28;20119;-72
2021/05/16 05:41:15;;;;;;;2.05;0.57;;;9.40;99.90;;;;;;4968235;28;20098;-72
2021/05/16 05:43:41;;;;;;;3.80;1.02;;;9.40;99.90;;;;;;4972117;28;20080;-72
2021/05/16 05:46:06;;;;;;;3.95;1.23;;;9.40;99.90;;;;;;4965211;28;20091;-75
2021/05/16 05:48:32;;;;;;;2.35;0.70;;;9.40;99.90;;;;;;4972563;28;20094;-73
2021/05/16 05:50:58;;;;;;;1.20;0.50;;;9.40;99.90;;;;;;4965123;28;20091;-72
2021/05/16 05:53:24;;;;;;;1.27;0.73;;;9.40;99.90;;;;;;4959978;28;20106;-72
2021/05/16 05:55:50;;;;;;;1.20;0.55;;;9.50;99.90;;;;;;4963949;28;20072;-72
2021/05/16 05:58:15;;;;;;;2.50;0.75;;;9.50;99.90;;;;;;4967928;28;20079;-72
2021/05/16 06:00:41;;;;;;;2.65;0.70;;;9.50;99.90;;;;;;4968050;28;20095;-74
2021/05/16 06:03:06;;;;;;;2.13;0.40;;;9.50;99.90;;;;;;4969312;28;20079;-72
2021/05/16 06:05:32;;;;;;;2.28;0.82;;;9.50;99.90;;;;;;4956440;28;20103;-74
2021/05/16 06:07:58;;;;;;;3.47;0.90;;;9.60;99.90;;;;;;4955248;28;20130;-76
2021/05/16 06:10:25;;;;;;;3.78;0.60;;;9.70;99.90;;;;;;4944872;28;20995;-75
2021/05/16 06:12:52;;;;;;;2.92;0.70;;;9.70;99.90;;;;;;4940858;28;20091;-72
2021/05/16 06:15:18;;;;;;;3.28;0.68;;;9.70;99.90;;;;;;4971239;28;20083;-77
2021/05/16 06:17:44;;;;;;;3.17;0.63;;;9.70;99.90;;;;;;4954065;28;20090;-73
2021/05/16 06:20:10;;;;;;;3.53;1.90;;;9.80;99.90;;;;;;4964695;28;20821;-72
2021/05/16 06:22:36;;;;;;;1.27;0.40;;;9.90;99.90;;;;;;4950986;28;20151;-73
2021/05/16 06:25:01;;;;;;;2.63;0.75;;;9.90;99.90;;;;;;4959291;28;20100;-75
2021/05/16 06:27:27;;;;;;;1.90;0.80;;;10.00;99.90;;;;;;4967822;28;20072;-72
2021/05/16 06:29:52;;;;;;;4.20;1.00;;;10.10;99.90;;;;;;4971016;28;20083;-73
2021/05/16 06:32:19;;;;;;;3.00;1.50;;;10.10;99.90;;;;;;4951995;28;20094;-72
2021/05/16 06:34:44;;;;;;;3.83;0.68;;;10.10;99.90;;;;;;4972904;28;20079;-74
2021/05/16 06:37:10;;;;;;;5.75;0.50;;;10.30;99.90;;;;;;4954988;28;20080;-75
2021/05/16 06:39:35;;;;;;;3.20;0.90;;;10.30;99.90;;;;;;4964251;28;20087;-75
2021/05/16 06:42:01;;;;;;;4.20;0.65;;;10.50;99.90;;;;;;4967011;28;20091;-74
2021/05/16 06:44:26;;;;;;;4.75;0.68;;;10.50;99.90;;;;;;4971689;28;20081;-72
2021/05/16 06:46:52;;;;;;;2.33;0.50;;;10.60;99.90;;;;;;4970687;28;20083;-72
2021/05/16 06:49:18;;;;;;;3.08;0.50;;;10.80;99.90;;;;;;4955299;28;20107;-72
2021/05/16 06:51:44;;;;;;;3.40;0.55;;;11.00;99.90;;;;;;4972190;28;20091;-73
2021/05/16 06:54:10;;;;;;;5.07;2.13;;;11.10;99.90;;;;;;4948643;28;20068;-73
2021/05/16 06:56:36;;;;;;;3.80;0.80;;;11.10;99.90;;;;;;4951728;28;20088;-73
2021/05/16 06:59:02;;;;;;;2.80;0.70;;;11.20;99.90;;;;;;4959338;28;20590;-73
2021/05/16 07:01:28;;;;;;;1.73;0.80;;;11.10;99.90;;;;;;4951227;28;20091;-73
2021/05/16 07:03:53;;;;;;;6.03;0.80;;;11.40;99.90;;;;;;4961904;28;20173;-73
2021/05/16 07:06:19;;;;;;;3.83;1.00;;;11.70;99.90;;;;;;4951158;28;20123;-73
2021/05/16 07:08:47;;;;;;;3.33;0.60;;;11.80;99.90;;;;;;4952870;28;20488;-73
2021/05/16 07:11:13;;;;;;;2.60;0.60;;;11.80;99.90;;;;;;4945548;28;20496;-73
2021/05/16 07:13:38;;;;;;;4.35;1.90;;;12.00;99.90;;;;;;4967186;28;20079;-73
2021/05/16 07:16:04;;;;;;;4.82;0.93;;;12.00;99.90;;;;;;4966862;28;20098;-73
2021/05/16 07:18:30;;;;;;;2.92;0.73;;;12.10;99.90;;;;;;4964537;28;20163;-73
2021/05/16 07:20:55;;;;;;;4.20;0.80;;;12.20;99.90;;;;;;4968737;28;20125;-72
2021/05/16 07:23:21;;;;;;;3.05;0.63;;;12.20;99.90;;;;;;4967315;28;20136;-72
2021/05/16 07:25:47;;;;;;;4.78;0.77;;;12.20;99.90;;;;;;4966648;28;20636;-76
2021/05/16 07:28:12;;;;;;;2.28;0.68;;;12.30;99.90;;;;;;4969591;28;20079;-72
2021/05/16 07:30:38;;;;;;;4.43;1.45;;;12.50;99.90;;;;;;4962224;28;20083;-75
2021/05/16 07:33:04;;;;;;;4.88;0.80;;;12.70;99.90;;;;;;4961632;28;20076;-72
2021/05/16 07:35:29;;;;;;;4.65;0.80;;;12.60;99.90;;;;;;4957135;28;20744;-72
2021/05/16 07:37:55;;;;;;;3.60;0.70;;;12.70;99.90;;;;;;4958428;28;20079;-73
2021/05/16 07:40:21;;;;;;;3.45;1.20;;;12.80;99.90;;;;;;4936623;28;20137;-72
2021/05/16 07:42:49;;;;;;;16.85;1.75;;;12.90;99.90;;;;;;4957836;28;20612;-73
2021/05/16 07:45:16;;;;;;;5.75;1.05;;;13.00;99.90;;;;;;4959392;28;20113;-73
2021/05/16 07:47:42;;;;;;;3.72;0.70;;;13.20;99.90;;;;;;4966968;28;20075;-80
2021/05/16 07:50:08;;;;;;;2.97;0.80;;;13.20;99.90;;;;;;4960198;28;20071;-73
2021/05/16 07:52:34;;;;;;;4.32;1.00;;;13.20;99.90;;;;;;4969026;28;20075;-73
2021/05/16 07:55:00;;;;;;;3.10;0.75;;;13.30;99.90;;;;;;4952818;28;20076;-73
2021/05/16 07:57:25;;;;;;;3.70;0.77;;;13.30;99.90;;;;;;4958653;28;20146;-74
2021/05/16 07:59:51;;;;;;;4.22;1.40;;;13.30;99.90;;;;;;4950397;28;20487;-73
2021/05/16 08:02:17;;;;;;;2.80;1.00;;;13.50;99.90;;;;;;4939573;29;20095;-73
2021/05/16 08:04:43;;;;;;;4.00;1.00;;;13.50;99.90;;;;;;4957168;28;20087;-76
2021/05/16 08:07:09;;;;;;;4.25;1.10;;;13.80;99.90;;;;;;4950919;28;20449;-75
2021/05/16 08:09:34;;;;;;;3.92;0.60;;;13.80;99.90;;;;;;4958786;28;20410;-76
2021/05/16 08:12:00;;;;;;;3.28;0.70;;;13.60;99.90;;;;;;4956304;28;20093;-75
2021/05/16 08:14:27;;;;;;;6.85;0.80;;;13.70;99.90;;;;;;4946699;28;20134;-73
2021/05/16 08:16:53;;;;;;;4.68;0.95;;;13.70;99.90;;;;;;4935354;28;20114;-76
2021/05/16 08:19:19;;;;;;;3.35;0.80;;;13.80;99.90;;;;;;4933560;28;20099;-76
2021/05/16 08:21:45;;;;;;;3.63;0.60;;;13.90;99.90;;;;;;4956503;28;20095;-74
2021/05/16 08:24:13;;;;;;;3.38;0.57;;;14.00;99.90;;;;;;4950534;28;20071;-75
2021/05/16 08:26:39;;;;;;;2.45;1.00;;;14.30;99.90;;;;;;4949470;28;20082;-73
2021/05/16 08:29:05;;;;;;;2.90;0.90;;;14.30;99.90;;;;;;4961973;28;20088;-75
2021/05/16 08:31:35;;;;;;;2.65;0.88;;;14.20;99.90;;;;;;4953198;28;20086;-76
2021/05/16 08:34:04;;;;;;;3.55;1.05;;;14.00;99.90;;;;;;4959431;28;20060;-78
2021/05/16 08:36:32;;;;;;;4.15;0.65;;;14.00;99.90;;;;;;4948885;28;20075;-78
2021/05/16 08:38:58;;;;;;;4.38;0.60;;;14.10;99.90;;;;;;4937971;28;20083;-77
2021/05/16 08:41:24;;;;;;;5.15;1.05;;;14.10;99.90;;;;;;4948759;28;20749;-80
2021/05/16 08:43:49;;;;;;;2.03;1.35;;;14.10;99.90;;;;;;4951736;28;20166;-77
2021/05/16 08:46:15;;;;;;;3.28;0.60;;;14.30;99.90;;;;;;4971137;28;20087;-77
2021/05/16 08:48:41;;;;;;;3.38;0.80;;;14.50;99.90;;;;;;4962536;28;20174;-80
2021/05/16 08:51:07;;;;;;;5.10;0.77;;;14.40;99.90;;;;;;4960998;28;20186;-76
2021/05/16 08:53:36;;;;;;;1.85;1.23;;;14.40;99.90;;;;;;4971402;28;20079;-78
2021/05/16 08:56:06;;;;;;;3.75;0.43;;;14.40;99.90;;;;;;4953101;28;20087;-79
2021/05/16 08:58:32;;;;;;;2.22;0.40;;;14.20;99.90;;;;;;4965681;28;20162;-76
2021/05/16 09:00:59;;;;;;;2.92;0.80;;;14.10;99.90;;;;;;4944425;28;20186;-74
2021/05/16 09:03:24;;;;;;;6.60;0.80;;;14.00;99.90;;;;;;4951655;28;20103;-74
2021/05/16 09:05:52;;;;;;;4.53;1.23;;;13.90;99.90;;;;;;4967927;28;20165;-75
2021/05/16 09:08:23;;;;;;;2.25;0.60;;;13.90;99.90;;;;;;4966775;28;20068;-75
2021/05/16 09:10:57;;;;;;;2.47;0.70;;;14.10;99.90;;;;;;4972240;28;20095;-77
2021/05/16 09:13:26;;;;;;;2.00;0.47;;;14.50;99.90;;;;;;4971913;28;20435;-74
2021/05/16 09:16:03;;;;;;;3.33;0.43;;;14.60;99.90;;;;;;4960450;28;20138;-76
2021/05/16 09:18:45;;;;;;;2.92;0.50;;;14.50;99.90;;;;;;4958371;28;20078;-76
2021/05/16 09:21:29;;;;;;;3.30;0.43;;;14.70;99.90;;;;;;4961810;28;20098;-75
2021/05/16 09:24:06;;;;;;;2.67;0.68;;;14.90;99.90;;;;;;4936526;28;20568;-75
2021/05/16 09:26:36;;;;;;;2.10;0.50;;;14.60;99.90;;;;;;4958118;28;20091;-74
2021/05/16 09:29:51;;;;;;;1.33;0.50;;;14.60;99.90;;;;;;4940013;28;20152;-75
2021/05/16 09:32:26;;;;;;;4.78;0.93;;;14.60;99.90;;;;;;4938604;29;20180;-74
2021/05/16 09:34:53;;;;;;;2.83;0.90;;;14.50;99.90;;;;;;4934624;29;20143;-74
2021/05/16 09:37:18;;;;;;;3.13;0.70;;;14.50;99.90;;;;;;4951512;28;20088;-74
2021/05/16 09:39:45;;;;;;;4.80;0.55;;;14.90;99.90;;;;;;4952581;28;20090;-74
2021/05/16 09:42:15;;;;;;;2.65;0.60;;;15.10;99.90;;;;;;4953639;28;20095;-74
2021/05/16 09:44:49;;;;;;;2.90;0.65;;;15.10;99.90;;;;;;4953849;28;20099;-74
2021/05/16 09:47:27;;;;;;;2.97;0.70;;;15.10;99.90;;;;;;4960218;28;20070;-73
2021/05/16 09:49:52;;;;;;;1.48;0.45;;;15.00;99.90;;;;;;4962777;28;20075;-75
2021/05/16 09:52:23;;;;;;;3.42;0.60;;;15.20;99.90;;;;;;4952022;28;20086;-74
2021/05/16 09:54:56;;;;;;;5.00;0.70;;;15.10;99.90;;;;;;4960347;28;20084;-76
2021/05/16 09:57:26;;;;;;;1.08;0.30;;;15.00;99.90;;;;;;4952614;28;20168;-76
2021/05/16 09:59:53;;;;;;;4.03;1.38;;;15.10;99.90;;;;;;4965399;28;20083;-75
2021/05/16 10:02:24;;;;;;;2.75;0.52;;;15.20;99.90;;;;;;4966455;28;20141;-77
2021/05/16 10:04:51;;;;;;;2.00;0.70;;;15.30;99.90;;;;;;4951111;28;20721;-75
2021/05/16 10:07:19;;;;;;;2.80;1.00;;;15.30;99.90;;;;;;4962775;28;20072;-74
2021/05/16 10:09:45;;;;;;;3.42;1.15;;;15.30;99.90;;;;;;4957104;28;20078;-76
2021/05/16 10:12:12;;;;;;;1.55;0.50;;;15.30;99.90;;;;;;4968551;28;20083;-74
2021/05/16 10:14:45;;;;;;;1.45;0.60;;;15.10;99.90;;;;;;4963974;28;20121;-75
2021/05/16 10:17:12;;;;;;;2.93;0.60;;;15.00;99.90;;;;;;4975688;28;20083;-73
2021/05/16 10:19:39;;;;;;;0.70;0.40;;;14.90;99.90;;;;;;4961949;28;20331;-76
2021/05/16 10:22:08;;;;;;;1.52;0.50;;;15.00;99.90;;;;;;4954924;28;20102;-76
2021/05/16 10:24:38;;;;;;;2.92;1.13;;;15.20;99.90;;;;;;4964444;28;20078;-75
2021/05/16 10:27:25;;;;;;;3.83;0.57;;;15.30;99.90;;;;;;4957510;28;20175;-75
2021/05/16 10:30:08;;;;;;;2.72;0.75;;;15.50;99.90;;;;;;4961124;28;20072;-75
2021/05/16 10:32:47;;;;;;;2.33;0.77;;;15.50;99.90;;;;;;4960889;28;20123;-79
2021/05/16 10:35:14;;;;;;;3.15;0.50;;;15.60;99.90;;;;;;4977464;28;20078;-75
2021/05/16 10:37:51;;;;;;;3.30;0.63;;;15.60;99.90;;;;;;4979021;28;20086;-75
2021/05/16 10:40:22;;;;;;;1.38;0.45;;;15.50;99.90;;;;;;4992501;28;20170;-76
2021/05/16 10:42:49;;;;;;;2.17;0.60;;;15.30;99.90;;;;;;4970889;28;20079;-75
2021/05/16 10:45:34;;;;;;;1.85;0.63;;;15.20;99.90;;;;;;4954781;28;20092;-75
2021/05/16 10:48:17;;;;;;;3.42;0.60;;;15.20;99.90;;;;;;4956708;28;20090;-75
2021/05/16 10:50:59;;;;;;;1.92;1.02;;;15.20;99.90;;;;;;4958959;28;20091;-75
2021/05/16 10:53:29;;;;;;;3.45;0.60;;;15.50;99.90;;;;;;4963374;28;20076;-74
2021/05/16 10:56:09;;;;;;;2.40;0.77;;;15.70;99.90;;;;;;4966408;28;20079;-75
2021/05/16 10:58:41;;;;;;;2.75;0.80;;;15.90;99.90;;;;;;4965360;28;20083;-76
2021/05/16 11:01:10;;;;;;;2.65;0.50;;;15.90;99.90;;;;;;4965470;28;20146;-72
2021/05/16 11:03:48;;;;;;;1.95;0.63;;;15.80;99.90;;;;;;4960243;28;20123;-74
2021/05/16 11:06:15;;;;;;;2.30;0.50;;;15.80;99.90;;;;;;4960134;28;20551;-77
2021/05/16 11:08:41;;;;;;;2.05;0.50;;;15.90;99.90;;;;;;4972281;28;20071;-77
2021/05/16 11:11:26;;;;;;;2.03;0.68;;;15.90;99.90;;;;;;4971845;28;20117;-74
2021/05/16 11:13:52;;;;;;;1.85;0.47;;;15.90;99.90;;;;;;4971607;28;20091;-76
2021/05/16 11:16:17;;;;;;;2.08;0.57;;;16.10;99.90;;;;;;4959800;28;20464;-74
2021/05/16 11:18:43;;;;;;;4.05;1.05;;;15.70;99.90;;;;;;4969892;28;20087;-77
2021/05/16 11:21:09;;;;;;;4.65;0.70;;;15.90;99.90;;;;;;4970515;28;20087;-74
2021/05/16 11:23:40;;;;;;;4.85;0.60;;;16.20;99.90;;;;;;4971561;28;20076;-75
2021/05/16 11:26:20;;;;;;;2.35;0.50;;;16.30;99.50;;;;;;4965914;28;20166;-75
2021/05/16 11:28:57;;;;;;;2.13;0.40;;;16.30;99.90;;;;;;4965214;28;20167;-75
2021/05/16 11:31:25;;;;;;;1.35;0.40;;;16.60;99.90;;;;;;4966110;28;20111;-77
2021/05/16 11:34:14;;;;;;;2.45;0.70;;;16.80;99.90;;;;;;4945961;28;20514;-75
2021/05/16 11:36:41;;;;;;;2.90;0.65;;;16.80;99.90;;;;;;4944353;29;20075;-74
2021/05/16 11:39:08;;;;;;;7.88;6.05;;;16.70;99.00;;;;;;4960233;28;20087;-82
2021/05/16 11:41:35;;;;;;;7.20;2.75;;;16.80;99.90;;;;;;4951966;28;20103;-82
2021/05/16 11:44:04;;;;;;;41.03;23.23;;;16.70;98.40;;;;;;4954404;28;20098;-79
2021/05/16 11:46:38;;;;;;;20.40;11.95;;;16.90;98.70;;;;;;4965327;28;20092;-76
2021/05/16 11:49:03;;;;;;;118.82;61.63;;;16.80;99.90;;;;;;4954821;28;20084;-75
2021/05/16 11:51:32;;;;;;;144.20;80.60;;;16.80;99.90;;;;;;4956389;28;20531;-76
2021/05/16 11:54:11;;;;;;;40.78;28.75;;;17.00;98.50;;;;;;4965531;28;20166;-75
2021/05/16 11:56:40;;;;;;;35.03;24.67;;;17.20;97.80;;;;;;4950741;28;20106;-75
2021/05/16 11:59:06;;;;;;;7.45;4.75;;;17.30;96.80;;;;;;4961731;28;20075;-75
2021/05/16 12:01:41;;;;;;;9.77;8.70;;;17.30;96.80;;;;;;4962125;28;20632;-75
2021/05/16 12:04:18;;;;;;;4.40;1.90;;;17.40;94.10;;;;;;4951316;28;20078;-75
2021/05/16 12:06:46;;;;;;;0.80;0.50;;;17.40;94.20;;;;;;4950393;28;20118;-75
2021/05/16 12:09:14;;;;;;;11.00;7.32;;;17.50;95.60;;;;;;4951978;28;20120;-76
2021/05/16 12:11:43;;;;;;;3.28;1.00;;;17.50;98.40;;;;;;4966353;28;20094;-76
2021/05/16 12:14:19;;;;;;;4.05;1.10;;;17.60;97.20;;;;;;4961848;28;20221;-77
2021/05/16 12:16:55;;;;;;;4.07;1.52;;;17.60;94.70;;;;;;4947481;28;20079;-76
2021/05/16 12:19:25;;;;;;;2.30;0.93;;;17.70;95.90;;;;;;4962973;28;20147;-76
2021/05/16 12:21:59;;;;;;;2.95;0.75;;;17.40;96.10;;;;;;4962077;28;20091;-76
2021/05/16 12:24:29;;;;;;;4.13;0.68;;;17.20;97.20;;;;;;4950940;29;20171;-75
2021/05/16 12:26:55;;;;;;;3.08;0.95;;;17.20;96.80;;;;;;4960363;28;20163;-75
2021/05/16 12:29:22;;;;;;;1.88;0.50;;;17.20;96.60;;;;;;4953330;28;20557;-74
2021/05/16 12:31:48;;;;;;;3.15;0.77;;;17.20;93.80;;;;;;4958600;28;20563;-74
2021/05/16 12:34:17;;;;;;;1.98;0.40;;;17.30;94.40;;;;;;4970886;28;20098;-76
2021/05/16 12:36:50;;;;;;;2.92;0.60;;;17.20;92.40;;;;;;4949029;28;20075;-77
2021/05/16 12:39:42;;;;;;;2.55;1.05;;;17.50;93.10;;;;;;4964405;28;20082;-76
2021/05/16 12:42:34;;;;;;;2.92;0.60;;;17.70;96.00;;;;;;4960534;28;20111;-77
2021/05/16 12:45:23;;;;;;;1.42;0.45;;;17.60;94.50;;;;;;4957899;28;20174;-78
2021/05/16 12:48:10;;;;;;;1.20;0.22;;;17.40;93.40;;;;;;4978614;28;20090;-81
2021/05/16 12:50:41;;;;;;;2.78;0.65;;;17.50;96.30;;;;;;4979497;28;20167;-82
2021/05/16 12:53:30;;;;;;;2.45;0.60;;;17.40;92.90;;;;;;4976051;28;20099;-82
2021/05/16 12:56:20;;;;;;;3.70;0.30;;;17.50;93.30;;;;;;4973867;28;20137;-81